^^
Your Local Weather - Clay, NY Station Historical Data
Daily Summary for January 5, 2018 Units:  English    Metric   Both
« Previous Day
Next Day »
Daily Weekly Monthly Yearly Custom
  High: Low: Average:
Temperature: 8.7 °F 1.9 °F 4.6 °F
Dew Point: 5.4 °F -1.8 °F 0.9 °F
Humidity: 86% 80% 84%
Wind Speed: 7.0mph 1.0mph 3.2mph
Wind Gust: 15.0mph - -
Wind- - WNW
Pressure: 30.02 in 29.70 in -
Precipitation: 0.00 in    
Historical Graphs
 
 
Tabular Data for January 5, 2018
Time Temperature Dew Point Pressure Wind Wind Speed Wind Gust Humidity Rainfall Rate (Hourly) solar
00:04 8.7 °F 5.4 °F 29.70 in NNW 2.0 mph 2.0 mph 86% 0.00 in 0 W/m2
00:12 8.4 °F 4.8 °F 29.70 in NW 3.0 mph 3.0 mph 85% 0.00 in 0 W/m2
00:18 8.2 °F 4.6 °F 29.70 in NW 3.0 mph 6.0 mph 85% 0.00 in 0 W/m2
00:24 8.1 °F 4.5 °F 29.70 in NW 3.0 mph 5.0 mph 85% 0.00 in 0 W/m2
00:32 7.9 °F 4.3 °F 29.70 in NW 2.0 mph 2.0 mph 85% 0.00 in 0 W/m2
00:38 7.8 °F 4.2 °F 29.70 in WNW 2.0 mph 2.0 mph 85% 0.00 in 0 W/m2
00:44 7.7 °F 4.1 °F 29.70 in NW 2.0 mph 2.0 mph 85% 0.00 in 0 W/m2
00:50 7.4 °F 3.8 °F 29.70 in NW 2.0 mph 5.0 mph 85% 0.00 in 0 W/m2
00:56 7.1 °F 3.5 °F 29.70 in NNW 3.0 mph 5.0 mph 85% 0.00 in 0 W/m2
01:02 6.9 °F 3.3 °F 29.70 in WNW 2.0 mph 3.0 mph 85% 0.00 in 0 W/m2
01:04 6.8 °F 3.2 °F 29.70 in WNW 2.0 mph 3.0 mph 85% 0.00 in 0 W/m2
01:10 6.6 °F 3.0 °F 29.70 in WNW 2.0 mph 3.0 mph 85% 0.00 in 0 W/m2
01:16 6.4 °F 2.6 °F 29.70 in West 2.0 mph 4.0 mph 84% 0.00 in 0 W/m2
01:22 6.4 °F 2.6 °F 29.70 in WNW 3.0 mph 5.0 mph 84% 0.00 in 0 W/m2
01:30 6.2 °F 2.4 °F 29.70 in WNW 2.0 mph 2.0 mph 84% 0.00 in 0 W/m2
01:36 6.1 °F 2.3 °F 29.70 in WNW 2.0 mph 3.0 mph 84% 0.00 in 0 W/m2
01:42 6.0 °F 2.2 °F 29.71 in NW 2.0 mph 2.0 mph 84% 0.00 in 0 W/m2
01:48 5.9 °F 2.1 °F 29.71 in WNW 2.0 mph 2.0 mph 84% 0.00 in 0 W/m2
01:54 5.8 °F 2.0 °F 29.71 in WNW 2.0 mph 3.0 mph 84% 0.00 in 0 W/m2
02:00 5.7 °F 1.9 °F 29.71 in WNW 2.0 mph 2.0 mph 84% 0.00 in 0 W/m2
02:06 5.7 °F 1.9 °F 29.72 in West 2.0 mph 2.0 mph 84% 0.00 in 0 W/m2
02:12 5.6 °F 1.8 °F 29.72 in NW 2.0 mph 2.0 mph 84% 0.00 in 0 W/m2
02:18 5.5 °F 1.7 °F 29.72 in NW 2.0 mph 2.0 mph 84% 0.00 in 0 W/m2
02:22 5.4 °F 1.6 °F 29.72 in WNW 2.0 mph 3.0 mph 84% 0.00 in 0 W/m2
02:28 5.3 °F 1.5 °F 29.72 in WNW 2.0 mph 3.0 mph 84% 0.00 in 0 W/m2
02:32 5.2 °F 1.4 °F 29.73 in WNW 1.0 mph 2.0 mph 84% 0.00 in 0 W/m2
02:38 5.0 °F 1.2 °F 29.73 in NW 2.0 mph 5.0 mph 84% 0.00 in 0 W/m2
02:44 4.9 °F 1.1 °F 29.73 in NW 2.0 mph 2.0 mph 84% 0.00 in 0 W/m2
02:50 4.8 °F 1.0 °F 29.73 in WNW 2.0 mph 2.0 mph 84% 0.00 in 0 W/m2
02:58 4.7 °F 0.9 °F 29.73 in WNW 2.0 mph 3.0 mph 84% 0.00 in 0 W/m2
03:04 4.6 °F 0.8 °F 29.73 in NW 3.0 mph 3.0 mph 84% 0.00 in 0 W/m2
03:10 4.5 °F 0.7 °F 29.73 in NW 3.0 mph 3.0 mph 84% 0.00 in 0 W/m2
03:16 4.3 °F 0.5 °F 29.73 in WNW 3.0 mph 3.0 mph 84% 0.00 in 0 W/m2
03:22 4.2 °F 0.4 °F 29.73 in WNW 3.0 mph 3.0 mph 84% 0.00 in 0 W/m2
03:30 3.9 °F 0.1 °F 29.73 in NW 2.0 mph 2.0 mph 84% 0.00 in 0 W/m2
03:36 3.7 °F -0.1 °F 29.74 in WNW 1.0 mph 3.0 mph 84% 0.00 in 0 W/m2
03:42 3.7 °F -0.1 °F 29.74 in WNW 1.0 mph 1.0 mph 84% 0.00 in 0 W/m2
03:50 3.7 °F -0.1 °F 29.74 in NW 1.0 mph 2.0 mph 84% 0.00 in 0 W/m2
03:56 3.7 °F -0.1 °F 29.74 in WNW 2.0 mph 4.0 mph 84% 0.00 in 0 W/m2
04:02 3.7 °F -0.1 °F 29.74 in WNW 3.0 mph 5.0 mph 84% 0.00 in 0 W/m2
04:08 3.6 °F -0.2 °F 29.75 in WNW 3.0 mph 5.0 mph 84% 0.00 in 0 W/m2
04:14 3.6 °F -0.2 °F 29.75 in WNW 2.0 mph 3.0 mph 84% 0.00 in 0 W/m2
04:22 3.6 °F -0.2 °F 29.75 in WNW 2.0 mph 3.0 mph 84% 0.00 in 0 W/m2
04:30 3.5 °F -0.2 °F 29.75 in NW 2.0 mph 2.0 mph 84% 0.00 in 0 W/m2
04:36 3.5 °F -0.2 °F 29.75 in WNW 2.0 mph 3.0 mph 84% 0.00 in 0 W/m2
04:42 3.4 °F -0.3 °F 29.75 in NW 2.0 mph 4.0 mph 84% 0.00 in 0 W/m2
04:50 3.3 °F -0.4 °F 29.75 in WNW 2.0 mph 2.0 mph 84% 0.00 in 0 W/m2
04:56 3.1 °F -0.6 °F 29.75 in NNW 3.0 mph 4.0 mph 84% 0.00 in 0 W/m2
05:02 2.9 °F -0.8 °F 29.76 in NW 3.0 mph 4.0 mph 84% 0.00 in 0 W/m2
05:08 2.8 °F -0.9 °F 29.76 in NW 3.0 mph 4.0 mph 84% 0.00 in 0 W/m2
05:24 2.5 °F -1.2 °F 29.76 in WNW 3.0 mph 4.0 mph 84% 0.00 in 0 W/m2
05:30 2.5 °F -1.2 °F 29.76 in NNW 2.0 mph 2.0 mph 84% 0.00 in 0 W/m2
05:36 2.5 °F -1.2 °F 29.77 in NW 2.0 mph 3.0 mph 84% 0.00 in 0 W/m2
05:42 2.4 °F -1.3 °F 29.77 in NW 2.0 mph 3.0 mph 84% 0.00 in 0 W/m2
05:48 2.4 °F -1.3 °F 29.77 in NW 2.0 mph 3.0 mph 84% 0.00 in 0 W/m2
05:54 2.4 °F -1.3 °F 29.78 in NW 2.0 mph 2.0 mph 84% 0.00 in 0 W/m2
06:00 2.4 °F -1.3 °F 29.78 in WNW 2.0 mph 2.0 mph 84% 0.00 in 0 W/m2
06:08 2.4 °F -1.3 °F 29.78 in WNW 2.0 mph 2.0 mph 84% 0.00 in 0 W/m2
06:14 2.4 °F -1.3 °F 29.78 in WNW 1.0 mph 3.0 mph 84% 0.00 in 0 W/m2
06:20 2.4 °F -1.3 °F 29.78 in NW 1.0 mph 1.0 mph 84% 0.00 in 0 W/m2
06:26 2.5 °F -1.2 °F 29.78 in NW 1.0 mph 1.0 mph 84% 0.00 in 0 W/m2
06:32 2.5 °F -1.2 °F 29.78 in WNW 1.0 mph 4.0 mph 84% 0.00 in 0 W/m2
06:34 2.5 °F -1.2 °F 29.78 in NW 2.0 mph 4.0 mph 84% 0.00 in 0 W/m2
06:40 2.7 °F -1.0 °F 29.79 in NW 2.0 mph 2.0 mph 84% 0.00 in 0 W/m2
06:50 2.8 °F -0.9 °F 29.79 in NW 2.0 mph 2.0 mph 84% 0.00 in 0 W/m2
06:56 2.9 °F -0.8 °F 29.79 in NW 2.0 mph 2.0 mph 84% 0.00 in 0 W/m2
07:02 2.8 °F -0.9 °F 29.80 in NW 1.0 mph 3.0 mph 84% 0.00 in 0 W/m2
07:08 2.6 °F -1.1 °F 29.80 in NW 2.0 mph 5.0 mph 84% 0.00 in 0 W/m2
07:14 2.5 °F -1.2 °F 29.80 in NNW 2.0 mph 3.0 mph 84% 0.00 in 0 W/m2
07:20 2.3 °F -1.4 °F 29.80 in NW 2.0 mph 2.0 mph 84% 0.00 in 0 W/m2
07:26 2.1 °F -1.6 °F 29.80 in NNW 2.0 mph 2.0 mph 84% 0.00 in 0 W/m2
07:32 2.0 °F -1.7 °F 29.81 in NNW 1.0 mph 2.0 mph 84% 0.00 in 0 W/m2
07:38 1.9 °F -1.8 °F 29.81 in NW 1.0 mph 4.0 mph 84% 0.00 in 0 W/m2
07:44 1.9 °F -1.8 °F 29.81 in NW 1.0 mph 2.0 mph 84% 0.00 in 0 W/m2
07:50 1.9 °F -1.8 °F 29.81 in NW 1.0 mph 1.0 mph 84% 0.00 in 0 W/m2
07:56 1.9 °F -1.8 °F 29.81 in NW 1.0 mph 3.0 mph 84% 0.00 in 5 W/m2
08:02 1.9 °F -1.8 °F 29.82 in NW 1.0 mph 2.0 mph 84% 0.00 in 5 W/m2
08:12 2.0 °F -1.7 °F 29.83 in North 1.0 mph 2.0 mph 84% 0.00 in 7 W/m2
08:18 2.0 °F -1.7 °F 29.83 in NW 1.0 mph 3.0 mph 84% 0.00 in 7 W/m2
08:26 2.1 °F -1.6 °F 29.83 in NNW 1.0 mph 1.0 mph 84% 0.00 in 12 W/m2
08:32 2.2 °F -1.5 °F 29.83 in NNW 1.0 mph 1.0 mph 84% 0.00 in 14 W/m2
08:38 2.4 °F -1.3 °F 29.83 in WNW 1.0 mph 2.0 mph 84% 0.00 in 16 W/m2
08:46 2.4 °F -1.3 °F 29.83 in WNW 1.0 mph 2.0 mph 84% 0.00 in 16 W/m2
08:54 2.6 °F -1.1 °F 29.84 in NNW 1.0 mph 4.0 mph 84% 0.00 in 19 W/m2
09:08 2.6 °F -1.4 °F 29.84 in NW 2.0 mph 5.0 mph 83% 0.00 in 30 W/m2
09:16 2.6 °F -1.4 °F 29.84 in WNW 2.0 mph 6.0 mph 83% 0.00 in 32 W/m2
09:22 2.8 °F -1.2 °F 29.84 in WNW 2.0 mph 2.0 mph 83% 0.00 in 35 W/m2
09:28 3.1 °F -0.9 °F 29.84 in West 2.0 mph 3.0 mph 83% 0.00 in 33 W/m2
09:34 3.4 °F -0.6 °F 29.84 in WNW 2.0 mph 2.0 mph 83% 0.00 in 40 W/m2
09:40 3.6 °F -0.4 °F 29.84 in NW 2.0 mph 3.0 mph 83% 0.00 in 40 W/m2
09:46 3.5 °F -0.8 °F 29.85 in WNW 3.0 mph 4.0 mph 82% 0.00 in 42 W/m2
09:54 3.5 °F -0.8 °F 29.85 in WNW 3.0 mph 4.0 mph 82% 0.00 in 37 W/m2
10:00 3.5 °F -0.8 °F 29.86 in NNW 3.0 mph 3.0 mph 82% 0.00 in 54 W/m2
10:06 3.7 °F -0.6 °F 29.86 in NW 3.0 mph 5.0 mph 82% 0.00 in 53 W/m2
10:12 3.7 °F -0.6 °F 29.86 in NW 3.0 mph 3.0 mph 82% 0.00 in 56 W/m2
10:18 3.9 °F -0.4 °F 29.86 in WNW 3.0 mph 3.0 mph 82% 0.00 in 70 W/m2
10:24 3.9 °F -0.6 °F 29.86 in NW 3.0 mph 3.0 mph 81% 0.00 in 79 W/m2
10:32 4.3 °F -0.2 °F 29.86 in WNW 4.0 mph 4.0 mph 81% 0.00 in 70 W/m2
10:34 4.4 °F -0.1 °F 29.86 in WNW 4.0 mph 4.0 mph 81% 0.00 in 74 W/m2
10:40 4.5 °F 0.0 °F 29.86 in WNW 3.0 mph 3.0 mph 81% 0.00 in 67 W/m2
10:50 3.8 °F -1.0 °F 29.86 in NW 4.0 mph 4.0 mph 80% 0.00 in 63 W/m2
10:56 4.0 °F -0.5 °F 29.86 in WNW 3.0 mph 6.0 mph 81% 0.00 in 79 W/m2
11:08 4.2 °F -0.6 °F 29.86 in WNW 5.0 mph 8.0 mph 80% 0.00 in 181 W/m2
11:14 4.4 °F -0.1 °F 29.86 in NW 5.0 mph 6.0 mph 81% 0.00 in 244 W/m2
11:20 5.2 °F 0.6 °F 29.86 in NW 5.0 mph 6.0 mph 81% 0.00 in 276 W/m2
11:28 5.4 °F 0.6 °F 29.86 in West 4.0 mph 9.0 mph 80% 0.00 in 271 W/m2
11:36 4.7 °F 0.2 °F 29.86 in WNW 5.0 mph 7.0 mph 81% 0.00 in 223 W/m2
11:42 4.6 °F 0.3 °F 29.86 in WNW 6.0 mph 7.0 mph 82% 0.00 in 186 W/m2
11:48 4.5 °F 0.5 °F 29.86 in West 6.0 mph 8.0 mph 83% 0.00 in 179 W/m2
11:54 4.4 °F 0.4 °F 29.86 in West 7.0 mph 8.0 mph 83% 0.00 in 179 W/m2
12:00 4.7 °F 0.7 °F 29.86 in WNW 6.0 mph 6.0 mph 83% 0.00 in 200 W/m2
12:06 5.1 °F 1.1 °F 29.86 in WNW 5.0 mph 6.0 mph 83% 0.00 in 241 W/m2
12:16 5.0 °F 1.0 °F 29.86 in West 6.0 mph 7.0 mph 83% 0.00 in 193 W/m2
12:22 5.3 °F 1.3 °F 29.85 in West 5.0 mph 6.0 mph 83% 0.00 in 202 W/m2
12:28 5.5 °F 1.5 °F 29.85 in West 5.0 mph 10.0 mph 83% 0.00 in 162 W/m2
12:40 5.5 °F 1.7 °F 29.85 in WNW 5.0 mph 5.0 mph 84% 0.00 in 139 W/m2
12:46 5.3 °F 1.3 °F 29.85 in West 5.0 mph 8.0 mph 83% 0.00 in 176 W/m2
12:54 5.3 °F 1.5 °F 29.85 in West 6.0 mph 7.0 mph 84% 0.00 in 200 W/m2
13:00 5.4 °F 1.6 °F 29.85 in WNW 6.0 mph 6.0 mph 84% 0.00 in 121 W/m2
13:08 5.5 °F 1.7 °F 29.86 in WNW 5.0 mph 7.0 mph 84% 0.00 in 139 W/m2
13:20 5.3 °F 1.5 °F 29.86 in WNW 6.0 mph 8.0 mph 84% 0.00 in 107 W/m2
13:34 5.4 °F 1.6 °F 29.86 in West 6.0 mph 9.0 mph 84% 0.00 in 104 W/m2
13:42 5.3 °F 1.5 °F 29.86 in West 6.0 mph 6.0 mph 84% 0.00 in 95 W/m2
13:48 5.3 °F 1.5 °F 29.87 in WNW 6.0 mph 7.0 mph 84% 0.00 in 97 W/m2
13:54 5.4 °F 1.6 °F 29.86 in WNW 5.0 mph 10.0 mph 84% 0.00 in 91 W/m2
14:00 5.4 °F 1.6 °F 29.87 in NW 5.0 mph 6.0 mph 84% 0.00 in 88 W/m2
14:04 5.4 °F 1.9 °F 29.87 in West 5.0 mph 8.0 mph 85% 0.00 in 74 W/m2
14:14 5.5 °F 2.0 °F 29.87 in West 5.0 mph 5.0 mph 85% 0.00 in 76 W/m2
14:22 5.4 °F 1.9 °F 29.88 in NW 5.0 mph 5.0 mph 85% 0.00 in 56 W/m2
14:28 5.3 °F 1.8 °F 29.88 in WNW 5.0 mph 5.0 mph 85% 0.00 in 49 W/m2
14:34 5.3 °F 1.8 °F 29.88 in WSW 4.0 mph 5.0 mph 85% 0.00 in 44 W/m2
14:40 5.4 °F 1.9 °F 29.88 in WSW 4.0 mph 6.0 mph 85% 0.00 in 39 W/m2
14:46 4.9 °F 1.4 °F 29.88 in West 4.0 mph 6.0 mph 85% 0.00 in 33 W/m2
14:52 4.4 °F 0.9 °F 29.89 in WSW 5.0 mph 5.0 mph 85% 0.00 in 35 W/m2
15:00 4.2 °F 0.7 °F 29.89 in West 4.0 mph 4.0 mph 85% 0.00 in 30 W/m2
15:08 4.1 °F 0.6 °F 29.89 in West 4.0 mph 4.0 mph 85% 0.00 in 21 W/m2
15:14 4.0 °F 0.5 °F 29.89 in WNW 4.0 mph 4.0 mph 85% 0.00 in 19 W/m2
15:20 4.0 °F 0.5 °F 29.89 in WSW 4.0 mph 7.0 mph 85% 0.00 in 18 W/m2
15:24 4.1 °F 0.6 °F 29.89 in WSW 4.0 mph 7.0 mph 85% 0.00 in 14 W/m2
15:30 4.2 °F 0.7 °F 29.89 in WNW 4.0 mph 4.0 mph 85% 0.00 in 16 W/m2
15:36 4.3 °F 0.8 °F 29.90 in WNW 3.0 mph 4.0 mph 85% 0.00 in 12 W/m2
15:42 4.3 °F 0.8 °F 29.90 in WSW 3.0 mph 6.0 mph 85% 0.00 in 11 W/m2
15:48 4.4 °F 0.9 °F 29.90 in West 3.0 mph 6.0 mph 85% 0.00 in 7 W/m2
15:54 4.4 °F 0.9 °F 29.91 in West 3.0 mph 3.0 mph 85% 0.00 in 7 W/m2
16:00 4.4 °F 0.9 °F 29.91 in WSW 4.0 mph 4.0 mph 85% 0.00 in 5 W/m2
16:08 4.4 °F 0.9 °F 29.91 in West 3.0 mph 5.0 mph 85% 0.00 in 0 W/m2
16:14 4.4 °F 1.1 °F 29.91 in West 3.0 mph 4.0 mph 86% 0.00 in 0 W/m2
16:24 4.4 °F 1.1 °F 29.92 in West 3.0 mph 4.0 mph 86% 0.00 in 0 W/m2
16:28 4.4 °F 1.1 °F 29.92 in WNW 3.0 mph 6.0 mph 86% 0.00 in 0 W/m2
16:34 4.5 °F 1.0 °F 29.92 in West 3.0 mph 3.0 mph 85% 0.00 in 0 W/m2
16:40 4.5 °F 1.0 °F 29.92 in West 2.0 mph 2.0 mph 85% 0.00 in 0 W/m2
16:46 4.6 °F 1.1 °F 29.92 in West 3.0 mph 6.0 mph 85% 0.00 in 0 W/m2
16:54 4.6 °F 1.1 °F 29.92 in West 4.0 mph 4.0 mph 85% 0.00 in 0 W/m2
17:00 4.5 °F 1.0 °F 29.92 in WNW 4.0 mph 4.0 mph 85% 0.00 in 0 W/m2
17:06 4.5 °F 1.0 °F 29.93 in WNW 4.0 mph 11.0 mph 85% 0.00 in 0 W/m2
17:12 4.4 °F 1.1 °F 29.93 in SW 4.0 mph 4.0 mph 86% 0.00 in 0 W/m2
17:20 4.4 °F 0.9 °F 29.94 in WNW 3.0 mph 7.0 mph 85% 0.00 in 0 W/m2
17:28 4.4 °F 0.9 °F 29.94 in West 3.0 mph 7.0 mph 85% 0.00 in 0 W/m2
17:34 4.4 °F 0.9 °F 29.94 in WNW 3.0 mph 3.0 mph 85% 0.00 in 0 W/m2
17:40 4.4 °F 1.1 °F 29.94 in West 3.0 mph 4.0 mph 86% 0.00 in 0 W/m2
17:46 4.5 °F 1.2 °F 29.95 in WSW 3.0 mph 4.0 mph 86% 0.00 in 0 W/m2
17:52 4.6 °F 1.3 °F 29.95 in West 3.0 mph 3.0 mph 86% 0.00 in 0 W/m2
18:02 4.7 °F 1.4 °F 29.95 in WNW 3.0 mph 4.0 mph 86% 0.00 in 0 W/m2
18:08 4.7 °F 1.4 °F 29.95 in West 3.0 mph 4.0 mph 86% 0.00 in 0 W/m2
18:14 4.8 °F 1.5 °F 29.96 in WNW 2.0 mph 3.0 mph 86% 0.00 in 0 W/m2
18:20 4.8 °F 1.5 °F 29.96 in West 2.0 mph 2.0 mph 86% 0.00 in 0 W/m2
18:26 4.9 °F 1.6 °F 29.96 in West 1.0 mph 3.0 mph 86% 0.00 in 0 W/m2
18:32 5.0 °F 1.7 °F 29.96 in West 2.0 mph 4.0 mph 86% 0.00 in 0 W/m2
18:38 5.2 °F 1.9 °F 29.96 in WSW 2.0 mph 4.0 mph 86% 0.00 in 0 W/m2
18:48 5.6 °F 2.3 °F 29.97 in NW 2.0 mph 4.0 mph 86% 0.00 in 0 W/m2
18:54 6.1 °F 2.8 °F 29.97 in WNW 3.0 mph 4.0 mph 86% 0.00 in 0 W/m2
18:56 6.2 °F 2.9 °F 29.97 in NW 3.0 mph 4.0 mph 86% 0.00 in 0 W/m2
19:02 6.5 °F 3.2 °F 29.97 in NW 4.0 mph 4.0 mph 86% 0.00 in 0 W/m2
19:08 6.7 °F 3.4 °F 29.97 in NW 4.0 mph 8.0 mph 86% 0.00 in 0 W/m2
19:14 6.8 °F 3.5 °F 29.98 in WNW 4.0 mph 6.0 mph 86% 0.00 in 0 W/m2
19:26 6.9 °F 3.6 °F 29.98 in NW 4.0 mph 6.0 mph 86% 0.00 in 0 W/m2
19:30 6.9 °F 3.6 °F 29.99 in WNW 4.0 mph 4.0 mph 86% 0.00 in 0 W/m2
19:36 6.9 °F 3.6 °F 29.98 in WNW 4.0 mph 8.0 mph 86% 0.00 in 0 W/m2
19:42 6.9 °F 3.6 °F 29.98 in NW 4.0 mph 5.0 mph 86% 0.00 in 0 W/m2
19:48 6.9 °F 3.6 °F 29.98 in NW 4.0 mph 8.0 mph 86% 0.00 in 0 W/m2
19:54 6.9 °F 3.6 °F 29.99 in WNW 5.0 mph 5.0 mph 86% 0.00 in 0 W/m2
20:10 6.7 °F 3.4 °F 29.99 in NW 4.0 mph 4.0 mph 86% 0.00 in 0 W/m2
20:18 6.6 °F 3.3 °F 30.00 in WNW 5.0 mph 6.0 mph 86% 0.00 in 0 W/m2
20:24 6.5 °F 3.2 °F 30.00 in WNW 5.0 mph 6.0 mph 86% 0.00 in 0 W/m2
20:32 6.4 °F 3.1 °F 30.00 in NNW 4.0 mph 7.0 mph 86% 0.00 in 0 W/m2
20:38 6.3 °F 3.0 °F 30.00 in WNW 5.0 mph 7.0 mph 86% 0.00 in 0 W/m2
20:44 6.2 °F 2.9 °F 30.00 in NNW 6.0 mph 10.0 mph 86% 0.00 in 0 W/m2
20:50 6.1 °F 2.8 °F 30.00 in NW 6.0 mph 6.0 mph 86% 0.00 in 0 W/m2
20:58 6.0 °F 2.7 °F 30.00 in WNW 4.0 mph 7.0 mph 86% 0.00 in 0 W/m2
21:04 5.9 °F 2.6 °F 30.00 in WNW 4.0 mph 6.0 mph 86% 0.00 in 0 W/m2
21:18 5.5 °F 2.2 °F 30.01 in WNW 5.0 mph 6.0 mph 86% 0.00 in 0 W/m2
21:24 5.4 °F 2.1 °F 30.01 in WNW 6.0 mph 15.0 mph 86% 0.00 in 0 W/m2
21:30 5.3 °F 2.0 °F 30.01 in WNW 6.0 mph 6.0 mph 86% 0.00 in 0 W/m2
21:36 5.2 °F 1.9 °F 30.01 in NW 5.0 mph 8.0 mph 86% 0.00 in 0 W/m2
21:46 5.2 °F 1.9 °F 30.01 in WNW 4.0 mph 6.0 mph 86% 0.00 in 0 W/m2
21:52 5.2 °F 1.9 °F 30.01 in West 4.0 mph 6.0 mph 86% 0.00 in 0 W/m2
21:58 5.1 °F 1.8 °F 30.01 in NW 4.0 mph 7.0 mph 86% 0.00 in 0 W/m2
22:04 5.1 °F 1.8 °F 30.01 in NW 4.0 mph 7.0 mph 86% 0.00 in 0 W/m2
22:10 5.1 °F 1.8 °F 30.01 in WNW 4.0 mph 4.0 mph 86% 0.00 in 0 W/m2
22:20 5.0 °F 1.7 °F 30.01 in NW 4.0 mph 4.0 mph 86% 0.00 in 0 W/m2
22:28 4.9 °F 1.6 °F 30.01 in NNW 6.0 mph 8.0 mph 86% 0.00 in 0 W/m2
22:36 4.8 °F 1.5 °F 30.02 in NW 6.0 mph 8.0 mph 86% 0.00 in 0 W/m2
22:44 4.7 °F 1.4 °F 30.02 in WNW 5.0 mph 5.0 mph 86% 0.00 in 0 W/m2
22:50 4.7 °F 1.4 °F 30.02 in NW 5.0 mph 5.0 mph 86% 0.00 in 0 W/m2
23:00 4.8 °F 1.5 °F 30.02 in NW 5.0 mph 5.0 mph 86% 0.00 in 0 W/m2
23:06 4.8 °F 1.5 °F 30.02 in NW 5.0 mph 5.0 mph 86% 0.00 in 0 W/m2
23:16 4.9 °F 1.6 °F 30.02 in NW 4.0 mph 6.0 mph 86% 0.00 in 0 W/m2
23:22 4.9 °F 1.6 °F 30.02 in NW 5.0 mph 5.0 mph 86% 0.00 in 0 W/m2
23:28 4.9 °F 1.6 °F 30.02 in NW 6.0 mph 6.0 mph 86% 0.00 in 0 W/m2
23:34 4.9 °F 1.6 °F 30.02 in WNW 5.0 mph 6.0 mph 86% 0.00 in 0 W/m2
23:42 4.9 °F 1.6 °F 30.02 in NW 5.0 mph 6.0 mph 86% 0.00 in 0 W/m2
23:48 4.9 °F 1.6 °F 30.02 in WNW 5.0 mph 6.0 mph 86% 0.00 in 0 W/m2
23:56 4.9 °F 1.6 °F 30.02 in NNW 5.0 mph 9.0 mph 86% 0.00 in 0 W/m2
Country Meadow, Clay, NY, USA
Compliments of Weather Underground - 2 mb